Time;durP1;ratioP1;P1;durP2;ratioP2;P2;SDS_P1;SDS_P2;PMS_P1;PMS_P2;Temp;Humidity;BMP_temperature;BMP_pressure;BME280_temperature;BME280_humidity;BME280_pressure;Samples;Min_cycle;Max_cycle;Signal;HPM_P1;HPM_P2
2022/01/30 00:01:05;;;;;;;;;;;;;;;8.51;66.02;101171.38;5022951;27;102194;-49
2022/01/30 00:03:32;;;;;;;;;;;;;;;8.50;65.69;101164.31;5010007;28;102749;-49
2022/01/30 00:05:59;;;;;;;;;;;;;;;8.50;66.28;101158.88;5014338;28;102547;-49
2022/01/30 00:08:25;;;;;;;;;;;;;;;8.50;65.77;101153.47;5009434;28;104062;-49
2022/01/30 00:10:58;;;;;;;;;;;;;;;8.50;65.59;101153.47;5023628;27;102285;-49
2022/01/30 00:13:26;;;;;;;;;;;;;;;8.51;66.44;101133.41;5005064;28;104081;-50
2022/01/30 00:15:54;;;;;;;;;;;;;;;8.50;65.66;101137.19;5011321;28;105739;-49
2022/01/30 00:21:07;;;;;;;;;;;;;;;8.51;66.19;101138.81;5016637;28;102432;-49
2022/01/30 00:23:37;;;;;;;;;;;;;;;8.50;65.24;101126.34;5010548;28;103089;-49
2022/01/30 00:26:05;;;;;;;;;;;;;;;8.49;66.13;101119.28;5022162;28;102768;-48
2022/01/30 00:28:32;;;;;;;;;;;;;;;8.50;65.32;101112.78;5009677;28;103778;-49
2022/01/30 00:30:59;;;;;;;;;;;;;;;8.49;65.49;101105.72;5014529;28;103415;-49
2022/01/30 00:33:25;;;;;;;;;;;;;;;8.49;65.98;101103.81;5017954;28;103927;-49
2022/01/30 00:35:51;;;;;;;;;;;;;;;8.50;65.33;101099.22;5008213;28;102748;-49
2022/01/30 00:38:21;;;;;;;;;;;;;;;8.49;65.49;101081.31;5017292;27;103650;-50
2022/01/30 00:40:48;;;;;;;;;;;;;;;8.49;65.60;101086.72;5012194;28;102404;-49
2022/01/30 00:43:15;;;;;;;;;;;;;;;8.49;65.68;101073.16;5009107;27;102275;-49
2022/01/30 00:45:42;;;;;;;;;;;;;;;8.48;65.93;101074.25;5014046;28;102798;-51
2022/01/30 00:48:09;;;;;;;;;;;;;;;8.48;65.77;101069.63;5020980;27;104069;-50
2022/01/30 00:50:36;;;;;;;;;;;;;;;8.49;65.49;101062.31;5013157;28;102432;-49
2022/01/30 00:53:02;;;;;;;;;;;;;;;8.48;65.20;101055.25;5012044;28;102234;-49
2022/01/30 00:55:30;;;;;;;;;;;;;;;8.48;66.28;101052.56;5019742;28;102682;-49
2022/01/30 00:57:57;;;;;;;;;;;;;;;8.48;66.06;101049.84;5006812;27;104047;-49
2022/01/30 01:00:24;;;;;;;;;;;;;;;8.48;65.93;101036.28;5005019;28;102566;-49
2022/01/30 01:02:51;;;;;;;;;;;;;;;8.47;65.54;101019.16;5013186;28;102145;-49
2022/01/30 01:05:17;;;;;;;;;;;;;;;8.47;66.11;101013.72;5014629;28;102186;-49
2022/01/30 01:07:46;;;;;;;;;;;;;;;8.47;65.99;101008.31;5009373;28;103857;-48
2022/01/30 01:23:52;;;;;;;;;;;;;;;8.47;66.37;100991.22;5014003;28;102439;-49
2022/01/30 01:26:19;;;;;;;;;;;;;;;8.47;65.68;100981.19;5015537;27;102342;-50
2022/01/30 01:28:47;;;;;;;;;;;;;;;8.47;65.68;100969.50;5008858;27;103835;-49
2022/01/30 01:31:13;;;;;;;;;;;;;;;8.46;65.62;100963.28;5017900;27;102272;-49
2022/01/30 01:36:25;;;;;;;;;;;;;;;8.47;65.48;100945.09;5014931;27;102399;-48
2022/01/30 01:38:51;;;;;;;;;;;;;;;8.46;65.69;100940.75;5011567;28;103448;-49
2022/01/30 01:41:20;;;;;;;;;;;;;;;8.47;66.17;100923.41;5020139;27;102401;-49
2022/01/30 01:43:49;;;;;;;;;;;;;;;8.47;65.15;100915.25;5015257;27;102384;-49
2022/01/30 01:46:19;;;;;;;;;;;;;;;8.46;66.05;100913.63;5020432;27;102526;-49
2022/01/30 01:48:48;;;;;;;;;;;;;;;8.47;65.59;100901.72;5014830;27;103860;-50
2022/01/30 01:51:18;;;;;;;;;;;;;;;8.47;65.50;100901.72;5013780;28;103490;-49
2022/01/30 01:53:45;;;;;;;;;;;;;;;8.47;65.76;100893.56;5013463;28;102177;-51
2022/01/30 01:56:12;;;;;;;;;;;;;;;8.47;65.57;100888.16;5014820;27;102235;-49
2022/01/30 01:58:38;;;;;;;;;;;;;;;8.46;66.31;100883.81;5011704;27;103926;-49
2022/01/30 02:01:05;;;;;;;;;;;;;;;8.46;65.63;100875.66;5013865;27;102230;-49
2022/01/30 02:03:34;;;;;;;;;;;;;;;8.45;65.59;100868.59;5013929;28;102918;-49
2022/01/30 02:06:02;;;;;;;;;;;;;;;8.46;65.65;100870.25;5024405;27;102372;-49
2022/01/30 02:08:52;;;;;;;;;;;;;;;8.47;65.96;100861.03;5012401;27;103838;-49
2022/01/30 02:24:44;;;;;;;;;;;;;;;8.45;65.58;100846.91;5013362;27;102370;-49
2022/01/30 02:27:12;;;;;;;;;;;;;;;8.46;65.95;100837.69;5012357;27;102413;-50
2022/01/30 02:29:38;;;;;;;;;;;;;;;8.45;66.00;100833.34;5012639;27;103897;-51
2022/01/30 02:32:04;;;;;;;;;;;;;;;8.45;66.02;100826.03;5013818;28;102554;-49
2022/01/30 02:34:30;;;;;;;;;;;;;;;8.46;65.32;100821.41;5010664;28;102245;-49
2022/01/30 02:36:58;;;;;;;;;;;;;;;8.45;66.38;100812.47;5012200;28;103042;-49
2022/01/30 02:39:25;;;;;;;;;;;;;;;8.43;66.15;100807.28;5004168;27;103901;-49
2022/01/30 02:41:53;;;;;;;;;;;;;;;8.45;65.87;100792.66;5021682;27;102056;-49
2022/01/30 02:46:53;;;;;;;;;;;;;;;8.44;65.70;100778.28;5018367;28;102499;-49
2022/01/30 02:51:50;;;;;;;;;;;;;;;8.44;65.20;100770.16;5012798;28;102464;-49
2022/01/30 02:54:16;;;;;;;;;;;;;;;8.45;66.27;100793.47;5011634;28;102378;-49
2022/01/30 02:56:42;;;;;;;;;;;;;;;8.45;66.01;100787.25;5007771;27;102393;-49
2022/01/30 02:59:10;;;;;;;;;;;;;;;8.43;65.93;100774.75;5015804;27;103670;-49
2022/01/30 03:01:36;;;;;;;;;;;;;;;8.43;65.95;100780.16;5016978;27;102234;-49
2022/01/30 03:04:03;;;;;;;;;;;;;;;8.45;66.32;100776.41;5012682;28;102182;-48
2022/01/30 03:06:29;;;;;;;;;;;;;;;8.43;66.35;100769.31;5013819;27;102195;-50
2022/01/30 03:08:55;;;;;;;;;;;;;;;8.43;65.20;100753.03;5025760;27;104038;-49
2022/01/30 03:11:22;;;;;;;;;;;;;;;8.43;66.29;100747.63;5014898;27;102506;-49
2022/01/30 03:13:48;;;;;;;;;;;;;;;8.43;65.85;100747.63;5011425;28;102563;-51
2022/01/30 03:16:16;;;;;;;;;;;;;;;8.45;65.68;100741.13;5018650;28;102226;-49
2022/01/30 03:18:43;;;;;;;;;;;;;;;8.45;65.37;100724.88;5006834;27;103759;-49
2022/01/30 03:21:09;;;;;;;;;;;;;;;8.43;65.76;100720.50;5005962;28;102316;-49
2022/01/30 03:23:38;;;;;;;;;;;;;;;8.43;66.29;100715.06;5021597;27;103006;-49
2022/01/30 03:26:05;;;;;;;;;;;;;;;8.43;65.40;100708.84;5000956;28;102271;-50
2022/01/30 03:28:32;;;;;;;;;;;;;;;8.43;66.01;100706.94;5013278;27;103871;-49
2022/01/30 03:31:02;;;;;;;;;;;;;;;8.43;65.61;100701.50;5011580;28;102472;-50
2022/01/30 03:33:29;;;;;;;;;;;;;;;8.42;65.98;100697.19;5009065;27;103553;-50
2022/01/30 03:35:55;;;;;;;;;;;;;;;8.44;65.88;100694.22;5013536;28;102364;-49
2022/01/30 03:38:22;;;;;;;;;;;;;;;8.43;65.92;100695.28;5012451;28;103909;-49
2022/01/30 03:40:48;;;;;;;;;;;;;;;8.43;65.48;100677.09;5030385;27;102718;-50
2022/01/30 03:43:14;;;;;;;;;;;;;;;8.42;66.43;100661.91;5017781;27;102195;-50
2022/01/30 03:45:41;;;;;;;;;;;;;;;8.43;65.31;100660.03;5007352;28;102443;-51
2022/01/30 03:48:07;;;;;;;;;;;;;;;8.43;65.92;100668.97;5013292;27;103988;-49
2022/01/30 03:50:35;;;;;;;;;;;;;;;8.43;65.69;100649.97;5015849;27;102068;-49
2022/01/30 03:53:02;;;;;;;;;;;;;;;8.43;65.57;100649.97;5013343;28;102783;-50
2022/01/30 03:55:28;;;;;;;;;;;;;;;8.44;65.56;100650.81;5013179;28;102247;-49
2022/01/30 03:57:54;;;;;;;;;;;;;;;8.42;65.61;100626.66;5011699;27;103934;-49
2022/01/30 04:00:20;;;;;;;;;;;;;;;8.42;66.06;100626.66;5019232;28;102125;-49
2022/01/30 04:02:46;;;;;;;;;;;;;;;8.43;65.90;100622.06;5025405;28;102548;-49
2022/01/30 04:05:12;;;;;;;;;;;;;;;8.42;65.85;100629.38;5014417;28;103041;-49
2022/01/30 04:07:40;;;;;;;;;;;;;;;8.42;65.35;100621.25;5011424;28;103997;-49
2022/01/30 04:10:07;;;;;;;;;;;;;;;8.43;66.31;100619.34;5013378;28;102442;-53
2022/01/30 04:12:34;;;;;;;;;;;;;;;8.41;65.94;100603.34;5019481;28;102300;-49
2022/01/30 04:15:00;;;;;;;;;;;;;;;8.42;66.26;100604.97;5012301;28;102359;-50
2022/01/30 04:17:26;;;;;;;;;;;;;;;8.42;65.31;100596.84;5013815;28;103947;-49
2022/01/30 04:19:52;;;;;;;;;;;;;;;8.42;65.98;100588.69;5013674;28;102485;-49
2022/01/30 04:22:18;;;;;;;;;;;;;;;8.41;65.76;100589.78;5013126;28;102458;-49
2022/01/30 04:24:46;;;;;;;;;;;;;;;8.43;65.35;100589.50;5010670;28;102713;-49
2022/01/30 04:27:12;;;;;;;;;;;;;;;8.41;65.83;100576.22;5012462;27;104067;-49
2022/01/30 04:29:38;;;;;;;;;;;;;;;8.42;65.91;100577.03;5014074;27;102121;-49
2022/01/30 04:32:05;;;;;;;;;;;;;;;8.43;65.58;100562.38;5011911;28;102202;-50
2022/01/30 04:34:32;;;;;;;;;;;;;;;8.43;65.18;100552.34;5013597;28;102449;-49
2022/01/30 04:37:02;;;;;;;;;;;;;;;8.43;66.29;100546.94;5007289;28;103936;-49
2022/01/30 05:00:47;;;;;;;;;;;;;;;8.41;65.40;100515.75;5010098;27;102033;-49
2022/01/30 05:08:06;;;;;;;;;;;;;;;8.42;65.37;100507.34;5021786;27;103856;-49
2022/01/30 05:10:33;;;;;;;;;;;;;;;8.42;65.21;100498.38;5015764;27;102170;-49
2022/01/30 05:13:04;;;;;;;;;;;;;;;8.41;66.29;100500.28;5016879;27;102569;-48
2022/01/30 05:15:30;;;;;;;;;;;;;;;8.41;65.31;100489.44;5019513;27;102315;-49
2022/01/30 05:17:56;;;;;;;;;;;;;;;8.42;65.76;100490.25;5011260;28;103956;-49
2022/01/30 05:20:23;;;;;;;;;;;;;;;8.41;65.44;100492.16;5027918;27;102509;-49
2022/01/30 05:22:50;;;;;;;;;;;;;;;8.41;65.67;100481.31;5014025;28;102914;-49
2022/01/30 05:25:17;;;;;;;;;;;;;;;8.41;65.38;100473.19;5016899;28;102149;-49
2022/01/30 05:27:43;;;;;;;;;;;;;;;8.40;65.53;100465.28;5009872;28;103910;-49
2022/01/30 05:30:11;;;;;;;;;;;;;;;8.41;65.52;100456.09;5015325;27;104069;-49
2022/01/30 05:32:38;;;;;;;;;;;;;;;8.41;64.96;100467.75;5014673;28;102590;-49
2022/01/30 05:35:04;;;;;;;;;;;;;;;8.40;65.93;100458.00;5016379;28;102794;-49
2022/01/30 05:37:30;;;;;;;;;;;;;;;8.41;65.48;100453.38;5013840;27;104151;-49
2022/01/30 05:39:57;;;;;;;;;;;;;;;8.41;65.37;100447.97;5012565;27;102882;-49
2022/01/30 05:42:26;;;;;;;;;;;;;;;8.41;65.48;100446.06;5013979;28;102309;-50
2022/01/30 05:45:13;;;;;;;;;;;;;;;8.40;65.56;100440.88;5016580;27;102439;-50
2022/01/30 05:47:49;;;;;;;;;;;;;;;8.41;65.74;100442.53;5006324;28;103988;-49
2022/01/30 05:50:15;;;;;;;;;;;;;;;8.40;64.93;100433.59;5006942;28;103715;-48
2022/01/30 05:52:42;;;;;;;;;;;;;;;8.41;66.01;100435.22;5016301;28;102342;-49
2022/01/30 05:55:08;;;;;;;;;;;;;;;8.41;65.57;100424.38;5015404;27;102304;-51
2022/01/30 05:57:34;;;;;;;;;;;;;;;8.41;65.36;100413.50;5010906;27;104268;-49
2022/01/30 06:00:00;;;;;;;;;;;;;;;8.40;64.87;100414.59;5006957;28;102497;-49
2022/01/30 06:02:26;;;;;;;;;;;;;;;8.41;65.40;100396.44;5014788;27;102453;-49
2022/01/30 06:04:54;;;;;;;;;;;;;;;8.41;65.24;100393.72;5012406;27;102685;-49
2022/01/30 06:07:27;;;;;;;;;;;;;;;8.41;65.46;100397.25;5015695;28;102460;-49
2022/01/30 06:09:53;;;;;;;;;;;;;;;8.41;65.68;100391.00;5010755;28;103607;-49
2022/01/30 06:12:19;;;;;;;;;;;;;;;8.41;66.16;100391.00;5016180;27;102270;-49
2022/01/30 06:14:46;;;;;;;;;;;;;;;8.41;66.20;100382.88;5007208;27;102522;-49
2022/01/30 06:17:13;;;;;;;;;;;;;;;8.41;65.19;100382.88;5011259;27;103730;-49
2022/01/30 06:19:39;;;;;;;;;;;;;;;8.41;65.29;100386.41;5009624;27;102467;-48
2022/01/30 06:22:06;;;;;;;;;;;;;;;8.42;65.70;100381.78;5013489;28;102683;-49
2022/01/30 06:24:33;;;;;;;;;;;;;;;8.41;65.00;100383.69;5016663;28;102663;-50
2022/01/30 06:26:59;;;;;;;;;;;;;;;8.42;65.25;100381.78;5013563;28;104003;-49
2022/01/30 06:29:25;;;;;;;;;;;;;;;8.42;65.63;100376.38;5007555;27;102373;-49
2022/01/30 06:31:51;;;;;;;;;;;;;;;8.41;65.49;100366.59;5010551;28;102623;-49
2022/01/30 06:34:18;;;;;;;;;;;;;;;8.42;65.83;100370.94;5011117;27;102191;-49
2022/01/30 06:36:45;;;;;;;;;;;;;;;8.41;64.99;100362.00;5016529;27;103896;-49
2022/01/30 06:39:12;;;;;;;;;;;;;;;8.41;65.91;100362.00;5006140;27;102005;-50
2022/01/30 06:41:38;;;;;;;;;;;;;;;8.41;65.74;100364.72;5011626;28;103472;-48
2022/01/30 06:44:06;;;;;;;;;;;;;;;8.41;65.70;100359.28;5004855;28;102239;-49
2022/01/30 06:46:32;;;;;;;;;;;;;;;8.42;65.06;100360.91;5012427;27;103852;-49
2022/01/30 06:48:58;;;;;;;;;;;;;;;8.42;65.70;100352.78;5009174;28;103088;-49
2022/01/30 06:51:24;;;;;;;;;;;;;;;8.42;66.28;100357.38;5008785;27;102215;-49
2022/01/30 06:53:50;;;;;;;;;;;;;;;8.42;65.98;100349.25;5010508;28;102670;-49
2022/01/30 06:56:18;;;;;;;;;;;;;;;8.42;65.51;100352.78;5012705;27;103923;-49
2022/01/30 06:58:44;;;;;;;;;;;;;;;8.42;64.85;100360.09;5013206;28;102249;-49
2022/01/30 07:01:10;;;;;;;;;;;;;;;8.42;65.52;100360.91;5011027;27;104072;-50
2022/01/30 07:03:37;;;;;;;;;;;;;;;8.41;65.66;100359.28;5013566;28;102582;-49
2022/01/30 07:06:03;;;;;;;;;;;;;;;8.42;65.63;100358.19;5014429;27;103836;-49
2022/01/30 07:08:29;;;;;;;;;;;;;;;8.42;65.10;100370.94;5024245;27;102229;-49
2022/01/30 07:10:55;;;;;;;;;;;;;;;8.42;65.91;100358.19;5009049;27;102043;-49
2022/01/30 07:13:23;;;;;;;;;;;;;;;8.42;65.80;100358.19;5017043;27;102411;-49
2022/01/30 07:15:49;;;;;;;;;;;;;;;8.42;64.83;100358.19;5004461;28;103945;-48
2022/01/30 07:18:15;;;;;;;;;;;;;;;8.42;66.17;100355.47;5011126;27;102433;-49
2022/01/30 07:20:41;;;;;;;;;;;;;;;8.42;65.63;100363.63;5011074;27;102548;-49
2022/01/30 07:23:07;;;;;;;;;;;;;;;8.42;65.66;100360.91;5004029;28;102180;-49
2022/01/30 07:25:33;;;;;;;;;;;;;;;8.42;64.88;100355.47;5014778;28;104338;-49
2022/01/30 07:27:59;;;;;;;;;;;;;;;8.43;65.45;100356.28;5009935;27;102325;-49
2022/01/30 07:30:26;;;;;;;;;;;;;;;8.41;65.83;100353.84;5011372;27;102317;-50
2022/01/30 07:32:54;;;;;;;;;;;;;;;8.42;66.16;100360.91;5016294;28;104507;-49
2022/01/30 07:35:21;;;;;;;;;;;;;;;8.42;65.15;100358.19;5010051;27;103967;-49
2022/01/30 07:37:47;;;;;;;;;;;;;;;8.43;65.49;100367.13;5002394;28;102278;-49
2022/01/30 07:40:13;;;;;;;;;;;;;;;8.42;65.62;100360.91;5008259;28;102777;-49
2022/01/30 07:42:39;;;;;;;;;;;;;;;8.42;65.45;100360.91;5015788;27;102248;-50
2022/01/30 07:45:06;;;;;;;;;;;;;;;8.43;64.91;100346.25;5016538;27;103844;-49
2022/01/30 07:47:34;;;;;;;;;;;;;;;8.42;65.77;100350.06;5008864;28;104183;-48
2022/01/30 07:50:01;;;;;;;;;;;;;;;8.42;65.29;100333.78;5014376;28;102319;-49
2022/01/30 07:52:26;;;;;;;;;;;;;;;8.42;64.83;100333.78;5015232;28;102740;-49
2022/01/30 07:54:52;;;;;;;;;;;;;;;8.42;65.42;100336.50;5009637;28;104030;-49
2022/01/30 07:57:19;;;;;;;;;;;;;;;8.45;65.26;100331.63;5004002;27;102506;-49
2022/01/30 07:59:45;;;;;;;;;;;;;;;8.43;66.10;100323.75;4999564;28;104174;-50
2022/01/30 08:02:11;;;;;;;;;;;;;;;8.43;65.22;100335.41;5011676;28;102581;-50
2022/01/30 08:04:39;;;;;;;;;;;;;;;8.43;65.12;100321.84;5012886;27;103846;-49
2022/01/30 08:07:06;;;;;;;;;;;;;;;8.43;65.23;100321.03;5008980;28;102184;-49
2022/01/30 08:09:32;;;;;;;;;;;;;;;8.44;65.42;100309.13;5002959;28;102976;-51
2022/01/30 08:12:00;;;;;;;;;;;;;;;8.42;65.48;100312.09;5002969;28;102993;-50
2022/01/30 08:14:26;;;;;;;;;;;;;;;8.45;65.59;100304.53;5002794;28;103914;-49
2022/01/30 08:16:52;;;;;;;;;;;;;;;8.42;65.75;100306.66;5018431;27;103702;-49
2022/01/30 08:19:21;;;;;;;;;;;;;;;8.38;64.51;100310.19;5001008;28;102296;-50
2022/01/30 08:21:48;;;;;;;;;;;;;;;8.30;64.00;100303.34;5001027;28;102801;-53
2022/01/30 08:24:14;;;;;;;;;;;;;;;8.19;63.14;100297.09;5005322;27;103889;-50
2022/01/30 08:26:40;;;;;;;;;;;;;;;8.11;61.97;100297.59;5007526;27;103781;-49
2022/01/30 08:29:11;;;;;;;;;;;;;;;8.04;61.45;100293.47;4999362;28;102609;-49
2022/01/30 08:31:37;;;;;;;;;;;;;;;7.98;61.57;100295.38;5026559;27;102778;-49
2022/01/30 08:34:03;;;;;;;;;;;;;;;7.92;61.32;100293.72;5000380;28;103862;-50
2022/01/30 08:36:30;;;;;;;;;;;;;;;7.85;61.50;100285.81;5008285;28;102219;-50
2022/01/30 08:38:57;;;;;;;;;;;;;;;7.81;61.63;100279.31;5004480;28;103805;-49
2022/01/30 08:41:23;;;;;;;;;;;;;;;7.77;61.81;100280.91;5009748;27;102225;-51
2022/01/30 08:43:50;;;;;;;;;;;;;;;7.75;62.41;100279.53;5007734;28;103917;-49
2022/01/30 08:46:17;;;;;;;;;;;;;;;7.77;62.58;100267.38;5015856;27;102439;-50
2022/01/30 08:48:43;;;;;;;;;;;;;;;7.81;63.06;100267.66;5007172;27;103342;-49
2022/01/30 08:51:09;;;;;;;;;;;;;;;7.81;63.38;100263.03;5010760;27;102254;-49
2022/01/30 08:53:35;;;;;;;;;;;;;;;7.82;63.62;100272.78;5011155;27;103874;-50
2022/01/30 08:56:03;;;;;;;;;;;;;;;7.83;62.97;100270.94;5012355;27;102298;-49
2022/01/30 08:58:30;;;;;;;;;;;;;;;7.84;64.14;100269.84;5006412;28;102994;-49
2022/01/30 09:00:56;;;;;;;;;;;;;;;7.84;64.41;100265.22;5009356;28;102310;-51
2022/01/30 09:03:22;;;;;;;;;;;;;;;7.85;63.69;100258.72;5008567;27;104550;-49
2022/01/30 09:05:48;;;;;;;;;;;;;;;7.85;63.77;100258.72;5010038;28;103773;-50
2022/01/30 09:08:14;;;;;;;;;;;;;;;7.85;63.72;100258.72;5014911;27;102181;-49
2022/01/30 09:10:41;;;;;;;;;;;;;;;7.87;64.11;100253.06;5012960;27;102278;-50
2022/01/30 09:13:09;;;;;;;;;;;;;;;7.87;64.48;100243.03;5001710;28;103862;-49
2022/01/30 09:15:40;;;;;;;;;;;;;;;7.88;63.87;100236.53;5009439;27;102802;-50
2022/01/30 09:18:09;;;;;;;;;;;;;;;7.89;63.72;100230.03;5017812;27;102647;-49
2022/01/30 09:20:35;;;;;;;;;;;;;;;7.89;63.85;100224.59;5013539;28;102538;-50
2022/01/30 09:23:02;;;;;;;;;;;;;;;7.90;64.30;100226.25;5010580;27;106531;-50
2022/01/30 09:25:28;;;;;;;;;;;;;;;7.91;63.56;100218.94;5013069;27;102291;-50
2022/01/30 09:27:54;;;;;;;;;;;;;;;7.92;63.75;100225.97;5010577;28;102190;-50
2022/01/30 09:30:22;;;;;;;;;;;;;;;7.93;64.02;100204.03;5010338;27;102230;-50
2022/01/30 09:32:49;;;;;;;;;;;;;;;7.94;64.34;100196.72;5011168;27;103830;-49
2022/01/30 09:35:15;;;;;;;;;;;;;;;7.94;64.76;100196.72;5011551;28;102224;-50
2022/01/30 09:37:41;;;;;;;;;;;;;;;7.95;64.32;100196.44;5003095;28;102654;-50
2022/01/30 09:40:08;;;;;;;;;;;;;;;7.96;64.62;100189.13;5008313;28;102251;-50
2022/01/30 09:42:34;;;;;;;;;;;;;;;7.97;63.90;100189.94;5013715;27;104025;-49
2022/01/30 09:45:04;;;;;;;;;;;;;;;7.98;63.76;100186.16;5012445;28;102087;-49
2022/01/30 09:47:31;;;;;;;;;;;;;;;7.98;65.04;100186.16;5008198;27;102472;-49
2022/01/30 09:49:59;;;;;;;;;;;;;;;7.99;64.46;100176.97;5002467;27;104788;-50
2022/01/30 09:52:25;;;;;;;;;;;;;;;7.99;64.69;100172.34;5010606;27;107845;-50
2022/01/30 09:54:50;;;;;;;;;;;;;;;8.01;64.57;100164.78;5009995;27;102341;-50
2022/01/30 09:57:17;;;;;;;;;;;;;;;8.01;64.18;100163.97;5012618;28;102447;-49
2022/01/30 09:59:43;;;;;;;;;;;;;;;8.01;63.89;100148.53;5013299;27;104604;-50
2022/01/30 10:02:10;;;;;;;;;;;;;;;8.02;64.04;100150.13;5014619;28;104199;-49
2022/01/30 10:04:39;;;;;;;;;;;;;;;8.02;64.14;100143.91;5005528;27;102879;-49
2022/01/30 10:07:11;;;;;;;;;;;;;;;8.03;65.05;100134.69;5008710;28;102566;-49
2022/01/30 10:09:44;;;;;;;;;;;;;;;8.04;63.79;100136.31;5004979;28;102587;-50
2022/01/30 10:12:19;;;;;;;;;;;;;;;8.04;64.03;100125.47;5009241;28;103914;-49
2022/01/30 10:14:53;;;;;;;;;;;;;;;8.06;64.49;100128.72;5010351;28;102706;-49
2022/01/30 10:17:27;;;;;;;;;;;;;;;8.07;64.60;100119.50;5014793;28;102363;-50
2022/01/30 10:20:02;;;;;;;;;;;;;;;8.06;65.04;100118.69;5017315;27;102334;-50
2022/01/30 10:22:29;;;;;;;;;;;;;;;8.07;64.62;100119.50;5014094;27;103776;-49
2022/01/30 10:24:55;;;;;;;;;;;;;;;8.08;65.10;100121.16;5004962;28;102480;-49
2022/01/30 10:27:22;;;;;;;;;;;;;;;8.08;65.14;100121.16;5007618;28;102696;-49
2022/01/30 10:29:56;;;;;;;;;;;;;;;8.08;64.82;100113.03;5007350;28;102693;-49
2022/01/30 10:32:23;;;;;;;;;;;;;;;8.09;64.60;100106.53;5008248;27;103911;-48
2022/01/30 10:34:55;;;;;;;;;;;;;;;8.10;64.45;100100.00;5006237;28;102414;-49
2022/01/30 10:37:24;;;;;;;;;;;;;;;8.10;64.42;100098.09;5013262;27;102386;-49
2022/01/30 10:39:54;;;;;;;;;;;;;;;8.10;64.63;100092.69;5014523;28;102150;-48
2022/01/30 10:42:34;;;;;;;;;;;;;;;8.11;64.16;100105.19;5009375;27;104035;-49
2022/01/30 10:45:01;;;;;;;;;;;;;;;8.12;64.92;100095.16;5011071;27;102325;-48
2022/01/30 10:47:29;;;;;;;;;;;;;;;8.13;64.85;100099.47;5013485;27;102119;-49
2022/01/30 10:49:55;;;;;;;;;;;;;;;8.13;64.29;100102.19;5010780;28;102497;-48
2022/01/30 10:52:23;;;;;;;;;;;;;;;8.14;64.74;100098.38;5003067;28;103864;-49
2022/01/30 10:54:50;;;;;;;;;;;;;;;8.14;65.24;100110.03;5008576;27;102201;-47
2022/01/30 10:57:16;;;;;;;;;;;;;;;8.14;64.78;100098.38;5002114;28;103059;-48
2022/01/30 10:59:43;;;;;;;;;;;;;;;8.15;64.98;100106.25;5009388;28;102568;-48
2022/01/30 11:02:10;;;;;;;;;;;;;;;8.15;64.52;100091.88;5003629;28;102729;-49
2022/01/30 11:04:37;;;;;;;;;;;;;;;8.15;64.52;100090.00;5006718;28;102766;-49
2022/01/30 11:07:03;;;;;;;;;;;;;;;8.15;64.41;100084.56;5010300;27;102177;-49
2022/01/30 11:09:39;;;;;;;;;;;;;;;8.16;64.54;100063.69;5004117;28;102174;-49
2022/01/30 11:12:17;;;;;;;;;;;;;;;8.18;64.92;100064.22;5009004;28;103956;-49
2022/01/30 11:17:15;;;;;;;;;;;;;;;8.19;64.54;100031.44;5010520;27;102472;-48
2022/01/30 11:19:42;;;;;;;;;;;;;;;8.20;64.01;100032.25;5013605;28;103109;-48
2022/01/30 11:22:09;;;;;;;;;;;;;;;8.21;64.71;100022.22;5021592;27;103635;-49
2022/01/30 11:24:38;;;;;;;;;;;;;;;8.22;64.89;100011.09;5012207;28;102240;-49
2022/01/30 11:27:08;;;;;;;;;;;;;;;8.23;65.02;100015.44;5006074;28;102550;-49
2022/01/30 11:29:35;;;;;;;;;;;;;;;8.24;64.64;100017.06;5017419;27;102786;-49
2022/01/30 11:32:02;;;;;;;;;;;;;;;8.25;64.99;100002.41;5007586;27;103833;-48
2022/01/30 11:34:28;;;;;;;;;;;;;;;8.25;65.01;99991.56;5006125;28;102185;-48
2022/01/30 11:36:56;;;;;;;;;;;;;;;8.26;64.75;99998.66;5008580;28;102511;-49
2022/01/30 11:39:22;;;;;;;;;;;;;;;8.26;64.72;99979.66;5007566;27;102481;-49
2022/01/30 11:42:06;;;;;;;;;;;;;;;8.27;65.20;99984.00;5026107;27;104000;-49
2022/01/30 11:44:32;;;;;;;;;;;;;;;8.28;64.95;99990.22;5004130;28;102364;-49
2022/01/30 11:47:17;;;;;;;;;;;;;;;8.28;64.70;99980.19;5030082;27;102171;-50
2022/01/30 11:49:48;;;;;;;;;;;;;;;8.29;65.51;99972.88;5013773;27;103571;-50
2022/01/30 11:52:15;;;;;;;;;;;;;;;8.29;65.00;99976.38;5012381;28;103915;-49
2022/01/30 11:54:41;;;;;;;;;;;;;;;8.30;65.12;99986.16;5008564;28;106141;-49
2022/01/30 11:57:39;;;;;;;;;;;;;;;8.30;64.91;99986.16;5017511;27;102354;-49
2022/01/30 12:00:07;;;;;;;;;;;;;;;8.31;64.70;99992.41;5007353;27;102585;-49
2022/01/30 12:02:35;;;;;;;;;;;;;;;8.31;64.28;99973.41;5011901;27;103801;-49
2022/01/30 12:05:02;;;;;;;;;;;;;;;8.31;64.79;99952.53;5014350;27;102452;-49
2022/01/30 12:07:34;;;;;;;;;;;;;;;8.32;65.63;99970.41;5013101;28;102049;-49
2022/01/30 12:10:18;;;;;;;;;;;;;;;8.32;65.12;99965.00;5014007;28;102990;-49
2022/01/30 12:12:47;;;;;;;;;;;;;;;8.31;64.65;99957.97;5008251;28;107838;-50
2022/01/30 12:15:28;;;;;;;;;;;;;;;8.33;64.65;99976.66;5011243;28;102635;-49
2022/01/30 12:17:54;;;;;;;;;;;;;;;8.33;65.10;99982.91;5013724;27;102107;-50
2022/01/30 12:20:22;;;;;;;;;;;;;;;8.33;65.35;99966.63;5010813;28;102185;-49
2022/01/30 12:22:48;;;;;;;;;;;;;;;8.33;64.96;99965.81;5011104;27;103372;-49
2022/01/30 12:25:23;;;;;;;;;;;;;;;8.34;65.31;99978.28;5012834;27;102586;-49
2022/01/30 12:27:50;;;;;;;;;;;;;;;8.33;64.70;99974.78;5014468;27;103083;-49
2022/01/30 12:30:30;;;;;;;;;;;;;;;8.34;64.69;99986.44;5013889;28;102181;-49
2022/01/30 12:32:56;;;;;;;;;;;;;;;8.34;65.09;99995.38;5007779;27;105010;-48
2022/01/30 12:35:22;;;;;;;;;;;;;;;8.33;65.27;99991.03;5012721;28;102466;-49
2022/01/30 12:37:48;;;;;;;;;;;;;;;8.34;64.80;99967.44;5013237;28;102278;-49
2022/01/30 12:40:15;;;;;;;;;;;;;;;8.35;64.56;99966.34;5022451;27;104808;-49
2022/01/30 12:42:41;;;;;;;;;;;;;;;8.33;65.14;99966.63;5009334;28;103908;-49
2022/01/30 12:45:10;;;;;;;;;;;;;;;8.34;65.16;99968.25;5011573;27;103776;-49
2022/01/30 12:47:44;;;;;;;;;;;;;;;8.35;65.65;99974.50;5014945;28;102118;-49
2022/01/30 12:50:10;;;;;;;;;;;;;;;8.35;65.46;99969.06;5018729;28;102262;-49
2022/01/30 12:52:37;;;;;;;;;;;;;;;8.34;64.41;99976.38;5005577;27;104032;-48
2022/01/30 12:55:12;;;;;;;;;;;;;;;8.35;64.83;99969.88;5008213;28;102498;-49
2022/01/30 12:57:39;;;;;;;;;;;;;;;8.36;64.90;99973.41;5007208;28;103530;-49
2022/01/30 13:00:06;;;;;;;;;;;;;;;8.36;65.48;99967.97;5008595;28;102219;-49
2022/01/30 13:02:37;;;;;;;;;;;;;;;8.35;64.89;99959.03;5005839;27;103978;-49
2022/01/30 13:05:04;;;;;;;;;;;;;;;8.36;65.47;99959.84;5015036;27;102540;-50
2022/01/30 13:07:30;;;;;;;;;;;;;;;8.35;64.64;99961.75;5011109;28;102491;-49
2022/01/30 13:10:03;;;;;;;;;;;;;;;8.35;65.66;99969.88;5012204;28;102528;-49
2022/01/30 13:12:30;;;;;;;;;;;;;;;8.36;65.17;99971.50;5008730;27;103903;-48
2022/01/30 13:14:57;;;;;;;;;;;;;;;8.36;64.83;99943.56;5010788;27;103802;-49
2022/01/30 13:17:27;;;;;;;;;;;;;;;8.36;64.94;99952.50;5006909;27;102309;-49
2022/01/30 13:19:54;;;;;;;;;;;;;;;8.36;65.71;99963.34;5013497;28;102276;-50
2022/01/30 13:22:25;;;;;;;;;;;;;;;8.35;65.27;99953.59;5010471;28;104129;-49
2022/01/30 13:24:54;;;;;;;;;;;;;;;8.36;64.82;99944.38;5015772;28;102203;-49
2022/01/30 13:27:20;;;;;;;;;;;;;;;8.35;65.54;99937.34;5013963;27;103469;-49
2022/01/30 13:29:46;;;;;;;;;;;;;;;8.36;64.98;99944.38;5017862;27;102600;-49
2022/01/30 13:32:12;;;;;;;;;;;;;;;8.36;65.11;99932.72;5010430;27;103821;-49
2022/01/30 13:34:40;;;;;;;;;;;;;;;8.36;64.93;99943.56;5005407;28;102179;-48
2022/01/30 13:37:08;;;;;;;;;;;;;;;8.35;65.64;99940.06;5012266;27;102586;-48
2022/01/30 13:39:38;;;;;;;;;;;;;;;8.36;64.83;99938.97;5005398;28;103121;-50
2022/01/30 13:45:06;;;;;;;;;;;;;;;8.37;64.80;99932.50;5012467;28;103732;-49
2022/01/30 13:47:33;;;;;;;;;;;;;;;8.36;64.94;99930.81;5013075;27;102325;-49
2022/01/30 13:50:00;;;;;;;;;;;;;;;8.36;65.54;99928.09;5011047;27;103843;-48